Time;durP1;ratioP1;P1;durP2;ratioP2;P2;SDS_P1;SDS_P2;PMS_P1;PMS_P2;Temp;Humidity;BMP_temperature;BMP_pressure;BME280_temperature;BME280_humidity;BME280_pressure;Samples;Min_cycle;Max_cycle;Signal;HPM_P1;HPM_P2
2022/07/21 00:00:47;;;;;;;16.80;15.45;;;;;;;;;;5051750;28;20869;-80
2022/07/21 00:03:13;;;;;;;15.53;14.17;;;;;;;;;;5051649;28;20491;-80
2022/07/21 00:05:39;;;;;;;17.30;15.85;;;;;;;;;;5051840;28;20524;-80
2022/07/21 00:08:05;;;;;;;18.95;17.45;;;;;;;;;;5051749;28;20377;-79
2022/07/21 00:10:31;;;;;;;17.95;16.25;;;;;;;;;;5049952;28;20373;-79
2022/07/21 00:12:57;;;;;;;17.60;16.00;;;;;;;;;;5055686;28;20869;-79
2022/07/21 00:15:24;;;;;;;17.08;15.68;;;;;;;;;;5055617;28;20400;-79
2022/07/21 00:17:50;;;;;;;17.37;15.97;;;;;;;;;;5055307;28;20381;-79
2022/07/21 00:20:17;;;;;;;20.17;18.45;;;;;;;;;;5055545;28;20409;-79
2022/07/21 00:22:43;;;;;;;17.65;16.35;;;;;;;;;;5055674;28;20738;-78
2022/07/21 00:25:10;;;;;;;18.73;17.23;;;;;;;;;;5055339;28;20420;-78
2022/07/21 00:27:36;;;;;;;18.42;16.90;;;;;;;;;;5055252;28;20929;-78
2022/07/21 00:30:04;;;;;;;18.83;17.23;;;;;;;;;;5055377;28;20413;-78
2022/07/21 00:32:30;;;;;;;17.45;15.98;;;;;;;;;;5055423;28;20378;-78
2022/07/21 00:34:56;;;;;;;17.42;16.02;;;;;;;;;;5055200;28;20385;-78
2022/07/21 00:37:23;;;;;;;16.40;15.23;;;;;;;;;;5048941;28;20371;-78
2022/07/21 00:39:50;;;;;;;15.55;14.45;;;;;;;;;;5052905;28;20380;-79
2022/07/21 00:42:26;;;;;;;17.70;16.30;;;;;;;;;;5054891;28;20385;-79
2022/07/21 00:44:53;;;;;;;17.10;15.82;;;;;;;;;;5055012;28;20369;-79
2022/07/21 00:47:20;;;;;;;19.65;17.95;;;;;;;;;;5045393;28;20394;-79
2022/07/21 00:49:46;;;;;;;18.90;17.40;;;;;;;;;;5054721;28;20385;-78
2022/07/21 00:52:12;;;;;;;16.75;15.40;;;;;;;;;;5058936;28;20728;-78
2022/07/21 00:54:38;;;;;;;15.50;14.40;;;;;;;;;;5042282;28;20387;-79
2022/07/21 00:57:04;;;;;;;15.80;14.55;;;;;;;;;;5039897;28;20471;-79
2022/07/21 00:59:30;;;;;;;20.77;18.85;;;;;;;;;;5035444;28;20391;-79
2022/07/21 01:01:56;;;;;;;20.73;19.05;;;;;;;;;;5035225;28;20394;-78
2022/07/21 01:04:23;;;;;;;21.90;20.15;;;;;;;;;;5036176;28;20383;-79
2022/07/21 01:06:49;;;;;;;19.50;18.10;;;;;;;;;;5045849;28;20459;-79
2022/07/21 01:09:15;;;;;;;21.92;20.02;;;;;;;;;;5052601;28;20781;-79
2022/07/21 01:11:41;;;;;;;18.38;17.02;;;;;;;;;;5052544;28;20424;-79
2022/07/21 01:14:07;;;;;;;18.17;16.85;;;;;;;;;;5052552;28;20388;-79
2022/07/21 01:16:33;;;;;;;17.48;16.15;;;;;;;;;;5052833;28;20798;-79
2022/07/21 01:18:59;;;;;;;17.27;15.68;;;;;;;;;;5052542;28;20409;-80
2022/07/21 01:21:30;;;;;;;19.77;17.97;;;;;;;;;;5051736;28;20381;-80
2022/07/21 01:23:56;;;;;;;18.25;16.85;;;;;;;;;;5053279;28;20444;-80
2022/07/21 01:26:22;;;;;;;20.83;19.13;;;;;;;;;;5054091;28;20450;-80
2022/07/21 01:28:48;;;;;;;18.20;16.45;;;;;;;;;;5054280;28;20382;-80
2022/07/21 01:31:14;;;;;;;18.40;17.00;;;;;;;;;;5054250;28;20384;-79
2022/07/21 01:33:40;;;;;;;17.95;16.60;;;;;;;;;;5054311;28;20420;-80
2022/07/21 01:36:06;;;;;;;16.27;15.00;;;;;;;;;;5053809;28;20428;-80
2022/07/21 01:41:29;;;;;;;15.40;14.27;;;;;;;;;;5054364;28;20419;-80
2022/07/21 01:43:56;;;;;;;16.17;14.90;;;;;;;;;;5054133;28;20382;-80
2022/07/21 01:46:22;;;;;;;14.57;13.52;;;;;;;;;;5053789;28;20410;-80
2022/07/21 01:48:48;;;;;;;14.93;13.82;;;;;;;;;;5053947;28;20442;-80
2022/07/21 01:51:14;;;;;;;13.75;12.75;;;;;;;;;;5054006;28;20921;-80
2022/07/21 01:53:40;;;;;;;14.18;12.98;;;;;;;;;;5048975;28;20465;-80
2022/07/21 01:56:07;;;;;;;12.43;11.53;;;;;;;;;;5046737;28;20961;-80
2022/07/21 01:58:33;;;;;;;14.60;13.50;;;;;;;;;;5051918;28;20397;-80
2022/07/21 02:00:59;;;;;;;13.47;12.40;;;;;;;;;;5052376;28;20460;-80
2022/07/21 02:03:25;;;;;;;12.23;11.32;;;;;;;;;;5052171;28;20428;-80
2022/07/21 02:05:51;;;;;;;11.38;10.57;;;;;;;;;;5053384;28;20444;-80
2022/07/21 02:08:17;;;;;;;11.50;10.60;;;;;;;;;;5053544;28;20425;-80
2022/07/21 02:10:43;;;;;;;11.38;10.57;;;;;;;;;;5052581;28;20377;-80
2022/07/21 02:13:09;;;;;;;11.07;10.25;;;;;;;;;;5053418;28;20378;-80
2022/07/21 02:15:35;;;;;;;10.63;9.93;;;;;;;;;;5052905;28;20869;-80
2022/07/21 02:18:01;;;;;;;11.10;10.20;;;;;;;;;;5039649;28;20382;-80
2022/07/21 02:20:27;;;;;;;12.23;11.30;;;;;;;;;;5049985;28;20447;-80
2022/07/21 02:22:53;;;;;;;11.53;10.73;;;;;;;;;;5053112;28;20400;-80
2022/07/21 02:25:19;;;;;;;12.25;11.40;;;;;;;;;;5053117;28;20409;-80
2022/07/21 02:27:47;;;;;;;11.70;10.80;;;;;;;;;;5052986;28;20382;-80
2022/07/21 02:30:13;;;;;;;11.27;10.48;;;;;;;;;;5053117;28;20381;-80
2022/07/21 02:32:39;;;;;;;11.50;10.70;;;;;;;;;;5052771;28;20377;-80
2022/07/21 02:35:05;;;;;;;12.30;11.35;;;;;;;;;;5053268;28;20377;-80
2022/07/21 02:37:32;;;;;;;13.93;12.93;;;;;;;;;;5027549;28;20863;-80
2022/07/21 02:39:58;;;;;;;13.98;12.98;;;;;;;;;;5051863;28;20442;-80
2022/07/21 02:42:24;;;;;;;12.82;11.93;;;;;;;;;;5052875;28;20449;-80
2022/07/21 02:44:50;;;;;;;13.60;12.60;;;;;;;;;;5052858;28;20406;-80
2022/07/21 02:47:16;;;;;;;15.02;13.93;;;;;;;;;;5049420;28;20417;-80
2022/07/21 02:49:42;;;;;;;17.23;15.90;;;;;;;;;;5052328;28;20382;-80
2022/07/21 02:52:08;;;;;;;15.25;14.15;;;;;;;;;;5052618;28;20412;-80
2022/07/21 02:54:34;;;;;;;19.10;17.50;;;;;;;;;;5052402;28;20374;-80
2022/07/21 02:57:00;;;;;;;16.55;15.38;;;;;;;;;;5052551;28;20930;-80
2022/07/21 02:59:26;;;;;;;15.35;14.23;;;;;;;;;;5052594;28;20461;-80
2022/07/21 03:01:52;;;;;;;14.87;13.77;;;;;;;;;;5052370;28;20746;-80
2022/07/21 03:04:18;;;;;;;15.75;14.63;;;;;;;;;;5052498;28;20472;-81
2022/07/21 03:06:44;;;;;;;14.57;13.48;;;;;;;;;;5052386;28;20494;-81
2022/07/21 03:09:10;;;;;;;15.82;14.57;;;;;;;;;;5049152;28;20378;-80
2022/07/21 03:11:36;;;;;;;14.77;13.75;;;;;;;;;;5042050;28;20453;-81
2022/07/21 03:14:02;;;;;;;14.27;13.07;;;;;;;;;;5052385;28;20461;-80
2022/07/21 03:16:28;;;;;;;17.20;15.88;;;;;;;;;;5052299;28;20393;-81
2022/07/21 03:18:54;;;;;;;16.45;15.05;;;;;;;;;;5052268;28;20452;-81
2022/07/21 03:21:20;;;;;;;15.77;14.70;;;;;;;;;;5052212;28;20941;-81
2022/07/21 03:23:46;;;;;;;14.65;13.63;;;;;;;;;;5047990;28;20393;-81
2022/07/21 03:26:13;;;;;;;13.90;13.00;;;;;;;;;;5052074;28;20459;-81
2022/07/21 03:28:39;;;;;;;13.93;12.75;;;;;;;;;;5052686;28;20382;-81
2022/07/21 03:31:06;;;;;;;14.50;13.40;;;;;;;;;;5052148;28;20734;-81
2022/07/21 03:33:32;;;;;;;16.00;14.65;;;;;;;;;;5052032;28;20381;-81
2022/07/21 03:35:58;;;;;;;14.50;13.50;;;;;;;;;;5052023;28;20858;-81
2022/07/21 03:38:24;;;;;;;16.30;14.70;;;;;;;;;;5043513;28;20531;-81
2022/07/21 03:40:50;;;;;;;13.98;12.88;;;;;;;;;;5052098;28;20464;-81
2022/07/21 03:43:16;;;;;;;14.95;13.65;;;;;;;;;;5052028;28;20397;-81
2022/07/21 03:45:42;;;;;;;15.97;14.70;;;;;;;;;;5053925;28;20480;-81
2022/07/21 03:48:09;;;;;;;14.30;13.20;;;;;;;;;;5056155;28;20378;-81
2022/07/21 03:50:36;;;;;;;14.87;13.60;;;;;;;;;;5056174;28;20381;-81
2022/07/21 03:53:03;;;;;;;14.25;13.07;;;;;;;;;;5056254;28;20385;-81
2022/07/21 03:55:30;;;;;;;15.15;13.90;;;;;;;;;;5056070;28;20381;-81
2022/07/21 03:58:03;;;;;;;15.65;14.27;;;;;;;;;;5055991;28;20750;-81
2022/07/21 04:00:30;;;;;;;15.93;14.70;;;;;;;;;;5055875;28;20385;-81
2022/07/21 04:02:57;;;;;;;18.63;16.75;;;;;;;;;;5055771;28;20397;-81
2022/07/21 04:05:23;;;;;;;15.88;14.70;;;;;;;;;;5055686;28;20417;-81
2022/07/21 04:07:50;;;;;;;15.10;14.00;;;;;;;;;;5055692;28;20388;-81
2022/07/21 04:10:18;;;;;;;16.35;14.85;;;;;;;;;;5055751;28;20370;-81
2022/07/21 04:12:44;;;;;;;16.67;15.27;;;;;;;;;;5055403;28;20385;-81
2022/07/21 04:15:11;;;;;;;16.70;15.30;;;;;;;;;;5054771;28;20441;-81
2022/07/21 04:17:37;;;;;;;15.88;14.68;;;;;;;;;;5036251;28;20849;-81
2022/07/21 04:20:04;;;;;;;17.67;16.17;;;;;;;;;;5034876;28;20470;-81
2022/07/21 04:22:30;;;;;;;18.60;17.15;;;;;;;;;;5037959;28;20809;-80
2022/07/21 04:24:55;;;;;;;17.50;16.20;;;;;;;;;;5038939;28;20390;-81
2022/07/21 04:27:21;;;;;;;19.77;18.17;;;;;;;;;;5034828;28;20407;-80
2022/07/21 04:29:47;;;;;;;17.80;16.33;;;;;;;;;;5054552;28;20377;-80
2022/07/21 04:32:14;;;;;;;18.27;16.80;;;;;;;;;;5055334;28;20377;-80
2022/07/21 04:34:40;;;;;;;19.38;17.77;;;;;;;;;;5055273;28;20369;-80
2022/07/21 04:37:06;;;;;;;17.60;16.20;;;;;;;;;;5050207;28;20391;-80
2022/07/21 04:39:32;;;;;;;19.90;18.15;;;;;;;;;;5050526;28;20385;-80
2022/07/21 04:41:58;;;;;;;23.00;21.00;;;;;;;;;;5053965;28;20396;-80
2022/07/21 04:44:24;;;;;;;22.80;20.77;;;;;;;;;;5033555;28;20389;-80
2022/07/21 04:46:50;;;;;;;22.80;20.65;;;;;;;;;;5054902;28;20432;-80
2022/07/21 04:49:16;;;;;;;22.60;20.70;;;;;;;;;;5055041;28;20460;-80
2022/07/21 04:51:42;;;;;;;25.47;23.07;;;;;;;;;;5054956;28;20456;-80
2022/07/21 04:54:08;;;;;;;24.67;22.58;;;;;;;;;;5054895;28;20922;-80
2022/07/21 04:56:34;;;;;;;24.58;22.27;;;;;;;;;;5054984;28;20408;-80
2022/07/21 04:59:01;;;;;;;23.95;21.85;;;;;;;;;;5055143;28;20413;-80
2022/07/21 05:01:27;;;;;;;22.50;20.67;;;;;;;;;;5054924;28;20457;-80
2022/07/21 05:03:53;;;;;;;23.73;21.73;;;;;;;;;;5054627;28;20882;-80
2022/07/21 05:06:19;;;;;;;22.92;20.83;;;;;;;;;;5054548;28;20405;-80
2022/07/21 05:08:45;;;;;;;22.55;20.63;;;;;;;;;;5054745;28;20373;-80
2022/07/21 05:11:11;;;;;;;23.60;21.63;;;;;;;;;;5054725;28;20369;-79
2022/07/21 05:13:37;;;;;;;25.67;23.27;;;;;;;;;;5055016;28;20464;-80
2022/07/21 05:16:04;;;;;;;24.63;22.07;;;;;;;;;;5054233;28;20472;-80
2022/07/21 05:18:30;;;;;;;26.40;24.17;;;;;;;;;;5054823;28;20392;-80
2022/07/21 05:20:56;;;;;;;26.25;23.95;;;;;;;;;;5054467;28;20397;-80
2022/07/21 05:23:22;;;;;;;25.95;23.65;;;;;;;;;;5054887;28;20523;-80
2022/07/21 05:25:48;;;;;;;25.20;22.85;;;;;;;;;;5054255;28;20876;-80
2022/07/21 05:28:14;;;;;;;27.05;24.50;;;;;;;;;;5054390;28;20377;-80
2022/07/21 05:30:40;;;;;;;25.90;23.43;;;;;;;;;;5054340;28;20460;-80
2022/07/21 05:33:06;;;;;;;22.17;20.30;;;;;;;;;;5054265;28;20389;-80
2022/07/21 05:35:33;;;;;;;22.90;20.90;;;;;;;;;;5054133;28;20390;-80
2022/07/21 05:37:59;;;;;;;23.83;21.88;;;;;;;;;;5045313;28;20445;-80
2022/07/21 05:40:25;;;;;;;23.00;21.00;;;;;;;;;;5054374;28;20389;-80
2022/07/21 05:42:51;;;;;;;22.52;20.63;;;;;;;;;;5053982;28;20390;-80
2022/07/21 05:45:18;;;;;;;22.45;20.65;;;;;;;;;;5053896;28;20393;-80
2022/07/21 05:47:44;;;;;;;22.40;20.60;;;;;;;;;;5053710;28;20388;-80
2022/07/21 05:50:10;;;;;;;23.20;21.27;;;;;;;;;;5053718;28;20385;-80
2022/07/21 05:52:36;;;;;;;23.13;20.80;;;;;;;;;;5053835;28;20380;-80
2022/07/21 05:55:02;;;;;;;24.30;22.25;;;;;;;;;;5053716;28;20384;-80
2022/07/21 05:57:28;;;;;;;22.88;21.00;;;;;;;;;;5053759;28;20402;-80
2022/07/21 05:59:54;;;;;;;23.30;21.13;;;;;;;;;;5052781;28;20416;-80
2022/07/21 06:02:20;;;;;;;24.52;22.33;;;;;;;;;;5053046;28;20937;-80
2022/07/21 06:04:46;;;;;;;25.25;22.75;;;;;;;;;;5042520;28;20388;-80
2022/07/21 06:07:12;;;;;;;22.80;20.80;;;;;;;;;;5052570;28;20844;-80
2022/07/21 06:09:38;;;;;;;22.67;20.98;;;;;;;;;;5036668;28;20375;-80
2022/07/21 06:12:04;;;;;;;23.05;21.08;;;;;;;;;;5038674;28;20920;-80
2022/07/21 06:14:30;;;;;;;23.05;21.15;;;;;;;;;;5051431;28;20385;-80
2022/07/21 06:16:56;;;;;;;23.73;21.77;;;;;;;;;;5052674;28;20388;-80
2022/07/21 06:19:22;;;;;;;23.25;21.02;;;;;;;;;;5053122;28;20389;-80
2022/07/21 06:21:48;;;;;;;22.10;20.08;;;;;;;;;;5053468;28;20512;-80
2022/07/21 06:24:14;;;;;;;20.45;18.90;;;;;;;;;;5051957;28;20460;-80
2022/07/21 06:26:40;;;;;;;23.17;21.17;;;;;;;;;;5051891;28;20413;-79
2022/07/21 06:29:07;;;;;;;23.77;21.67;;;;;;;;;;5046763;28;20846;-79
2022/07/21 06:31:33;;;;;;;23.23;21.23;;;;;;;;;;5049582;28;20381;-80
2022/07/21 06:33:59;;;;;;;22.65;20.65;;;;;;;;;;5051899;28;20439;-80
2022/07/21 06:36:25;;;;;;;22.70;20.60;;;;;;;;;;5046403;28;20469;-80
2022/07/21 06:38:51;;;;;;;21.83;19.88;;;;;;;;;;5050895;28;20739;-80
2022/07/21 06:41:17;;;;;;;20.17;18.55;;;;;;;;;;5050348;28;20381;-80
2022/07/21 06:43:43;;;;;;;19.67;18.15;;;;;;;;;;5042327;28;20389;-80
2022/07/21 06:46:09;;;;;;;20.77;19.00;;;;;;;;;;5051456;28;20401;-80
2022/07/21 06:48:35;;;;;;;22.80;20.88;;;;;;;;;;5050683;28;20370;-80
2022/07/21 06:51:01;;;;;;;23.15;21.45;;;;;;;;;;5050963;28;20756;-81
2022/07/21 06:53:27;;;;;;;23.27;21.17;;;;;;;;;;5049992;28;20398;-81
2022/07/21 06:55:53;;;;;;;23.23;21.20;;;;;;;;;;5052012;28;20374;-82
2022/07/21 06:58:21;;;;;;;22.55;20.35;;;;;;;;;;5051603;28;20387;-82
2022/07/21 07:00:47;;;;;;;18.67;17.17;;;;;;;;;;5049059;28;20453;-82
2022/07/21 07:03:14;;;;;;;20.88;19.17;;;;;;;;;;5052353;28;20428;-82
2022/07/21 07:05:40;;;;;;;19.98;18.27;;;;;;;;;;5051289;28;20400;-82
2022/07/21 07:08:07;;;;;;;19.50;17.90;;;;;;;;;;5050068;28;20873;-82
2022/07/21 07:10:33;;;;;;;19.10;17.40;;;;;;;;;;5052306;28;20881;-82
2022/07/21 07:13:00;;;;;;;19.42;17.77;;;;;;;;;;5052435;28;20389;-84
2022/07/21 07:15:26;;;;;;;18.98;17.23;;;;;;;;;;5052325;28;20439;-84
2022/07/21 07:17:52;;;;;;;18.43;17.03;;;;;;;;;;5051085;28;20565;-83
2022/07/21 07:20:18;;;;;;;19.35;17.75;;;;;;;;;;5050982;28;20712;-83
2022/07/21 07:22:44;;;;;;;18.30;16.85;;;;;;;;;;5051631;28;20420;-82
2022/07/21 07:25:10;;;;;;;19.05;17.45;;;;;;;;;;5052138;28;20377;-82
2022/07/21 07:27:36;;;;;;;18.13;16.63;;;;;;;;;;5052049;28;20422;-82
2022/07/21 07:30:03;;;;;;;16.90;15.52;;;;;;;;;;5051525;28;20389;-83
2022/07/21 07:32:29;;;;;;;18.23;16.73;;;;;;;;;;5052054;28;20938;-82
2022/07/21 07:34:55;;;;;;;19.67;17.88;;;;;;;;;;5052028;28;20377;-82
2022/07/21 07:37:21;;;;;;;17.13;15.82;;;;;;;;;;5045876;28;20448;-82
2022/07/21 07:39:47;;;;;;;18.17;16.73;;;;;;;;;;5049603;28;20460;-82
2022/07/21 07:42:13;;;;;;;17.45;16.15;;;;;;;;;;5052186;28;20480;-82
2022/07/21 07:44:39;;;;;;;17.55;16.15;;;;;;;;;;5051400;28;20381;-82
2022/07/21 07:47:05;;;;;;;17.15;15.65;;;;;;;;;;5051896;28;20770;-82
2022/07/21 07:49:32;;;;;;;14.75;13.60;;;;;;;;;;5052013;28;20405;-82
2022/07/21 07:51:58;;;;;;;15.77;14.45;;;;;;;;;;5051864;28;20389;-82
2022/07/21 07:54:24;;;;;;;14.63;13.43;;;;;;;;;;5051355;28;20720;-81
2022/07/21 07:56:51;;;;;;;17.02;15.45;;;;;;;;;;5051941;28;20866;-82
2022/07/21 07:59:17;;;;;;;15.85;14.48;;;;;;;;;;5051945;28;20388;-81
2022/07/21 08:01:43;;;;;;;17.03;15.70;;;;;;;;;;5051771;28;20376;-82
2022/07/21 08:04:09;;;;;;;15.20;13.95;;;;;;;;;;5048898;28;20392;-82
2022/07/21 08:06:35;;;;;;;15.73;14.23;;;;;;;;;;5050772;28;20401;-82
2022/07/21 08:09:01;;;;;;;14.35;13.15;;;;;;;;;;5051756;28;20799;-82
2022/07/21 08:11:27;;;;;;;14.20;13.05;;;;;;;;;;5051846;28;20380;-82
2022/07/21 08:13:53;;;;;;;15.93;14.43;;;;;;;;;;5051723;28;20416;-82
2022/07/21 08:16:19;;;;;;;15.57;14.13;;;;;;;;;;5051715;28;20425;-82
2022/07/21 08:18:46;;;;;;;14.38;13.07;;;;;;;;;;5052015;28;20435;-82
2022/07/21 08:21:12;;;;;;;13.90;12.55;;;;;;;;;;5052351;28;20377;-82
2022/07/21 08:23:38;;;;;;;14.57;13.33;;;;;;;;;;5051708;28;20374;-81
2022/07/21 08:26:04;;;;;;;14.73;13.52;;;;;;;;;;5051455;28;20455;-82
2022/07/21 08:28:30;;;;;;;14.80;13.57;;;;;;;;;;5051891;28;20746;-82
2022/07/21 08:30:56;;;;;;;14.85;13.52;;;;;;;;;;5052078;28;20385;-81
2022/07/21 08:33:22;;;;;;;14.63;13.38;;;;;;;;;;5055683;28;20369;-81
2022/07/21 08:35:48;;;;;;;11.85;10.82;;;;;;;;;;5053892;28;20382;-82
2022/07/21 08:38:14;;;;;;;11.93;10.93;;;;;;;;;;5040156;28;20862;-82
2022/07/21 08:40:45;;;;;;;13.13;11.93;;;;;;;;;;5055254;28;20392;-82
2022/07/21 08:43:13;;;;;;;12.13;11.13;;;;;;;;;;5055244;28;20446;-82
2022/07/21 08:45:39;;;;;;;12.98;11.88;;;;;;;;;;5054636;28;20397;-82
2022/07/21 08:48:06;;;;;;;12.15;11.15;;;;;;;;;;5055137;28;20378;-82
2022/07/21 08:50:36;;;;;;;13.00;11.88;;;;;;;;;;5055592;28;20734;-82
2022/07/21 08:53:03;;;;;;;12.52;11.43;;;;;;;;;;5055095;28;20378;-82
2022/07/21 08:55:30;;;;;;;13.35;12.35;;;;;;;;;;5055007;28;20846;-82
2022/07/21 08:57:56;;;;;;;12.88;11.88;;;;;;;;;;5055232;28;20386;-82
2022/07/21 09:00:22;;;;;;;12.52;11.70;;;;;;;;;;5054974;28;20866;-82
2022/07/21 09:02:48;;;;;;;12.10;11.10;;;;;;;;;;5054932;28;20766;-82
2022/07/21 09:05:14;;;;;;;12.50;11.60;;;;;;;;;;5054791;28;20907;-82
2022/07/21 09:07:54;;;;;;;12.87;11.97;;;;;;;;;;5054611;28;20461;-82
2022/07/21 09:10:25;;;;;;;12.90;11.70;;;;;;;;;;5054688;28;20396;-81
2022/07/21 09:12:53;;;;;;;13.07;11.97;;;;;;;;;;5054606;28;20451;-81
2022/07/21 09:15:20;;;;;;;12.23;11.18;;;;;;;;;;5054586;28;20734;-82
2022/07/21 09:17:46;;;;;;;11.70;10.60;;;;;;;;;;5054400;28;20438;-82
2022/07/21 09:20:23;;;;;;;11.13;10.23;;;;;;;;;;5054403;28;20388;-82
2022/07/21 09:23:12;;;;;;;10.25;9.35;;;;;;;;;;5054307;28;20810;-82
2022/07/21 09:25:58;;;;;;;9.45;8.75;;;;;;;;;;5054287;28;20412;-82
2022/07/21 09:28:26;;;;;;;8.85;8.15;;;;;;;;;;5054296;28;20373;-82
2022/07/21 09:31:02;;;;;;;9.60;8.80;;;;;;;;;;5054259;28;20374;-81
2022/07/21 09:33:33;;;;;;;9.30;8.50;;;;;;;;;;5054215;28;20373;-82
2022/07/21 09:36:08;;;;;;;9.10;8.40;;;;;;;;;;5054166;28;20477;-82
2022/07/21 09:38:35;;;;;;;8.15;7.45;;;;;;;;;;5045175;28;20392;-82
2022/07/21 09:41:05;;;;;;;11.07;10.18;;;;;;;;;;5054041;28;20416;-82
2022/07/21 09:43:33;;;;;;;8.77;7.90;;;;;;;;;;5053094;28;20403;-82
2022/07/21 09:46:05;;;;;;;7.97;7.10;;;;;;;;;;5053780;28;20512;-82
2022/07/21 09:48:32;;;;;;;7.77;6.97;;;;;;;;;;5053856;28;20720;-82
2022/07/21 09:51:18;;;;;;;7.13;6.50;;;;;;;;;;5053789;28;20419;-82
2022/07/21 09:53:58;;;;;;;7.40;6.80;;;;;;;;;;5053869;28;20392;-82
2022/07/21 09:56:25;;;;;;;7.78;7.07;;;;;;;;;;5050366;28;20385;-82
2022/07/21 09:58:52;;;;;;;7.00;6.50;;;;;;;;;;5053930;28;20400;-82
2022/07/21 10:01:19;;;;;;;7.38;6.88;;;;;;;;;;5053616;28;20400;-82
2022/07/21 10:03:45;;;;;;;8.30;7.50;;;;;;;;;;5053474;28;20484;-81
2022/07/21 10:06:12;;;;;;;8.13;7.40;;;;;;;;;;5053375;28;20401;-81
2022/07/21 10:08:38;;;;;;;7.90;7.18;;;;;;;;;;5053500;28;20515;-81
2022/07/21 10:11:05;;;;;;;7.78;7.18;;;;;;;;;;5053409;28;20381;-81
2022/07/21 10:13:31;;;;;;;6.97;6.38;;;;;;;;;;5053330;28;20459;-82
2022/07/21 10:15:58;;;;;;;6.60;6.07;;;;;;;;;;5053305;28;20421;-82
2022/07/21 10:18:25;;;;;;;6.78;6.28;;;;;;;;;;5053350;28;20378;-82
2022/07/21 10:20:56;;;;;;;7.07;6.47;;;;;;;;;;5053183;28;20386;-82
2022/07/21 10:23:41;;;;;;;7.05;6.50;;;;;;;;;;5053179;28;20393;-82
2022/07/21 10:26:08;;;;;;;7.18;6.50;;;;;;;;;;5052973;28;20432;-82
2022/07/21 10:28:34;;;;;;;7.03;6.53;;;;;;;;;;5053111;28;20468;-82
2022/07/21 10:31:12;;;;;;;6.93;6.25;;;;;;;;;;5053282;28;20727;-82
2022/07/21 10:33:52;;;;;;;7.22;6.60;;;;;;;;;;5049782;28;20375;-82
2022/07/21 10:36:27;;;;;;;6.15;5.65;;;;;;;;;;5052880;28;20456;-82
2022/07/21 10:39:17;;;;;;;6.15;5.60;;;;;;;;;;5044522;28;20843;-82
2022/07/21 10:42:05;;;;;;;6.85;6.20;;;;;;;;;;5032725;28;20752;-82
2022/07/21 10:44:31;;;;;;;6.97;5.95;;;;;;;;;;5051406;28;20381;-81
2022/07/21 10:47:36;;;;;;;6.20;5.60;;;;;;;;;;5052699;28;20821;-82
2022/07/21 10:50:07;;;;;;;4.90;4.57;;;;;;;;;;4991371;28;20425;-82
2022/07/21 10:52:39;;;;;;;5.55;5.05;;;;;;;;;;4991412;28;20814;-82
2022/07/21 10:55:16;;;;;;;5.53;4.95;;;;;;;;;;4991442;28;20445;-81
2022/07/21 10:57:44;;;;;;;5.50;5.10;;;;;;;;;;4991266;28;20387;-82
2022/07/21 11:00:27;;;;;;;10.43;8.13;;;;;;;;;;4991298;28;20398;-82
2022/07/21 11:03:16;;;;;;;5.90;5.38;;;;;;;;;;4991162;28;20430;-82
2022/07/21 11:06:05;;;;;;;5.40;4.90;;;;;;;;;;4983517;28;20422;-82
2022/07/21 11:08:41;;;;;;;5.28;4.78;;;;;;;;;;4991638;28;20407;-82
2022/07/21 11:11:11;;;;;;;7.70;5.63;;;;;;;;;;4991140;28;20425;-82
2022/07/21 11:13:56;;;;;;;5.22;4.50;;;;;;;;;;4991172;28;20792;-82
2022/07/21 11:16:22;;;;;;;4.88;4.53;;;;;;;;;;4990997;28;20393;-82
2022/07/21 11:18:48;;;;;;;4.57;4.18;;;;;;;;;;4990987;28;20468;-82
2022/07/21 11:21:17;;;;;;;5.60;4.18;;;;;;;;;;5024334;28;20393;-82
2022/07/21 11:23:49;;;;;;;4.05;3.75;;;;;;;;;;5052218;28;20388;-82
2022/07/21 11:26:23;;;;;;;4.38;4.07;;;;;;;;;;5051906;28;20511;-82
2022/07/21 11:29:03;;;;;;;4.25;3.85;;;;;;;;;;5052141;28;20382;-82
2022/07/21 11:31:29;;;;;;;4.43;3.80;;;;;;;;;;5052356;28;20483;-82
2022/07/21 11:33:55;;;;;;;4.20;3.90;;;;;;;;;;5052066;28;20854;-82
2022/07/21 11:36:25;;;;;;;4.10;3.80;;;;;;;;;;5052221;28;20388;-82
2022/07/21 11:38:58;;;;;;;4.33;3.93;;;;;;;;;;5043308;28;20396;-82
2022/07/21 11:41:24;;;;;;;4.40;4.00;;;;;;;;;;5051908;28;20846;-82
2022/07/21 11:43:50;;;;;;;4.45;4.03;;;;;;;;;;5052081;28;20388;-83
2022/07/21 11:46:16;;;;;;;4.20;3.83;;;;;;;;;;5050078;28;20417;-82
2022/07/21 11:48:42;;;;;;;4.40;4.00;;;;;;;;;;5050400;28;20369;-82
2022/07/21 11:51:08;;;;;;;4.13;3.72;;;;;;;;;;5051885;28;20444;-82
2022/07/21 11:53:35;;;;;;;5.82;5.28;;;;;;;;;;5051889;28;20374;-82
2022/07/21 11:56:01;;;;;;;5.90;5.40;;;;;;;;;;5051864;28;20383;-82
2022/07/21 11:58:27;;;;;;;4.32;3.92;;;;;;;;;;5051880;28;20477;-82
2022/07/21 12:01:06;;;;;;;9.80;7.22;;;;;;;;;;5051810;28;20432;-82
2022/07/21 12:03:32;;;;;;;4.15;3.75;;;;;;;;;;5051528;28;20412;-82
2022/07/21 12:05:59;;;;;;;4.45;4.05;;;;;;;;;;5052164;28;20479;-82
2022/07/21 12:08:26;;;;;;;4.03;3.58;;;;;;;;;;5056174;28;20386;-82
2022/07/21 12:11:03;;;;;;;4.53;4.13;;;;;;;;;;5055703;28;20381;-82
2022/07/21 12:13:29;;;;;;;3.88;3.40;;;;;;;;;;5055731;28;20549;-82
2022/07/21 12:15:55;;;;;;;3.53;3.22;;;;;;;;;;5055630;28;20473;-82
2022/07/21 12:18:26;;;;;;;4.80;4.30;;;;;;;;;;5055618;28;20385;-82
2022/07/21 12:21:01;;;;;;;3.70;3.40;;;;;;;;;;5055830;28;20476;-82
2022/07/21 12:23:28;;;;;;;3.63;3.35;;;;;;;;;;5055647;28;20428;-82
2022/07/21 12:25:56;;;;;;;3.60;3.30;;;;;;;;;;5055592;28;20405;-82
2022/07/21 12:28:41;;;;;;;3.50;3.05;;;;;;;;;;5055542;28;20381;-82
2022/07/21 12:31:11;;;;;;;3.60;3.30;;;;;;;;;;5055408;28;20388;-82
2022/07/21 12:33:36;;;;;;;3.30;3.00;;;;;;;;;;5055362;28;20389;-82
2022/07/21 12:36:04;;;;;;;3.67;3.20;;;;;;;;;;5055215;28;20928;-82
2022/07/21 12:38:37;;;;;;;3.10;2.90;;;;;;;;;;5046603;28;20382;-82
2022/07/21 12:41:03;;;;;;;3.50;3.20;;;;;;;;;;5044576;28;20405;-82
2022/07/21 12:43:29;;;;;;;3.20;2.90;;;;;;;;;;5055161;28;20377;-82
2022/07/21 12:46:15;;;;;;;4.85;3.40;;;;;;;;;;5054963;28;20397;-83
2022/07/21 12:48:41;;;;;;;3.28;2.97;;;;;;;;;;5055178;28;20940;-82
2022/07/21 12:51:14;;;;;;;5.93;4.18;;;;;;;;;;5055103;28;20378;-82
2022/07/21 12:53:44;;;;;;;3.10;2.80;;;;;;;;;;5054936;28;20370;-82
2022/07/21 12:56:11;;;;;;;3.05;2.85;;;;;;;;;;5054989;28;20388;-82
2022/07/21 12:58:38;;;;;;;2.97;2.77;;;;;;;;;;5054995;28;20396;-82
2022/07/21 13:01:04;;;;;;;3.53;3.22;;;;;;;;;;5054890;28;20393;-82
2022/07/21 13:03:30;;;;;;;7.20;4.88;;;;;;;;;;5054698;28;20394;-82
2022/07/21 13:05:57;;;;;;;3.22;3.03;;;;;;;;;;5054556;28;20413;-82
2022/07/21 13:08:23;;;;;;;3.20;3.00;;;;;;;;;;5054958;28;20466;-82
2022/07/21 13:10:49;;;;;;;3.30;3.00;;;;;;;;;;5054974;28;20401;-82
2022/07/21 13:13:15;;;;;;;2.70;2.50;;;;;;;;;;5054987;28;20457;-82
2022/07/21 13:15:41;;;;;;;3.17;2.80;;;;;;;;;;5054458;28;20385;-82
2022/07/21 13:18:07;;;;;;;2.97;2.78;;;;;;;;;;5053210;28;20716;-82
2022/07/21 13:20:32;;;;;;;3.58;2.85;;;;;;;;;;5054566;28;20442;-82
2022/07/21 13:22:59;;;;;;;3.20;2.87;;;;;;;;;;5054353;28;20393;-82
2022/07/21 13:25:25;;;;;;;3.10;2.60;;;;;;;;;;5054448;28;20385;-82
2022/07/21 13:27:51;;;;;;;4.93;3.23;;;;;;;;;;5054260;28;20373;-82
2022/07/21 13:30:17;;;;;;;3.63;2.97;;;;;;;;;;5054385;28;20464;-82
2022/07/21 13:32:43;;;;;;;3.50;3.20;;;;;;;;;;5054367;28;20377;-82
2022/07/21 13:35:09;;;;;;;4.47;3.45;;;;;;;;;;5054499;28;20378;-82
2022/07/21 13:37:35;;;;;;;2.70;2.50;;;;;;;;;;5046080;28;20375;-82
2022/07/21 13:40:02;;;;;;;3.33;3.13;;;;;;;;;;5053831;28;20389;-82
2022/07/21 13:42:28;;;;;;;3.60;2.60;;;;;;;;;;5054305;28;20381;-82
2022/07/21 13:44:54;;;;;;;3.45;2.67;;;;;;;;;;5053979;28;20463;-82
2022/07/21 13:47:20;;;;;;;3.75;3.45;;;;;;;;;;5053861;28;20440;-82
2022/07/21 13:49:46;;;;;;;4.25;3.85;;;;;;;;;;5053937;28;20385;-82
2022/07/21 13:52:12;;;;;;;3.38;3.08;;;;;;;;;;5049770;28;20377;-82
2022/07/21 13:54:38;;;;;;;3.22;2.75;;;;;;;;;;5051705;28;20385;-83
2022/07/21 13:57:04;;;;;;;5.65;2.58;;;;;;;;;;5053779;28;20716;-83
2022/07/21 13:59:31;;;;;;;3.70;2.67;;;;;;;;;;5053831;28;20381;-82
2022/07/21 14:01:57;;;;;;;3.25;2.90;;;;;;;;;;5053649;28;20393;-82
2022/07/21 14:04:23;;;;;;;3.10;2.63;;;;;;;;;;5053668;28;20924;-82
2022/07/21 14:06:49;;;;;;;4.00;3.60;;;;;;;;;;5053542;28;20504;-82
2022/07/21 14:09:16;;;;;;;3.03;2.33;;;;;;;;;;5053532;28;20789;-82
2022/07/21 14:11:42;;;;;;;2.75;2.50;;;;;;;;;;5053584;28;20382;-82
2022/07/21 14:14:09;;;;;;;3.90;3.10;;;;;;;;;;5053477;28;20389;-82
2022/07/21 14:16:35;;;;;;;3.63;2.93;;;;;;;;;;5053419;28;20385;-82
2022/07/21 14:19:01;;;;;;;4.10;2.83;;;;;;;;;;5053358;28;20396;-82
2022/07/21 14:21:27;;;;;;;5.30;3.50;;;;;;;;;;5053560;28;20389;-82
2022/07/21 14:26:38;;;;;;;4.90;3.47;;;;;;;;;;5053143;28;20477;-82
2022/07/21 14:29:05;;;;;;;2.38;2.17;;;;;;;;;;5052852;28;20374;-82
2022/07/21 14:31:31;;;;;;;2.50;2.30;;;;;;;;;;5053141;28;20396;-82
2022/07/21 14:33:57;;;;;;;3.10;2.60;;;;;;;;;;5053256;28;20389;-80